sensor_id;sensor_type;location;lat;lon;timestamp;temperature;humidity
4050;DHT22;2039;50.894;6.888;2024-02-26T00:01:40;7.50;77.10
4050;DHT22;2039;50.894;6.888;2024-02-26T00:04:06;7.50;86.80
4050;DHT22;2039;50.894;6.888;2024-02-26T00:06:31;7.50;89.70
4050;DHT22;2039;50.894;6.888;2024-02-26T00:08:58;7.40;91.00
4050;DHT22;2039;50.894;6.888;2024-02-26T00:11:23;7.40;91.40
4050;DHT22;2039;50.894;6.888;2024-02-26T00:13:49;7.30;91.20
4050;DHT22;2039;50.894;6.888;2024-02-26T00:16:15;7.30;94.10
4050;DHT22;2039;50.894;6.888;2024-02-26T00:18:40;7.30;96.90
4050;DHT22;2039;50.894;6.888;2024-02-26T00:21:06;7.20;99.30
4050;DHT22;2039;50.894;6.888;2024-02-26T00:23:32;7.20;98.90
4050;DHT22;2039;50.894;6.888;2024-02-26T00:25:58;7.20;98.30
4050;DHT22;2039;50.894;6.888;2024-02-26T00:28:23;7.10;99.90
4050;DHT22;2039;50.894;6.888;2024-02-26T00:30:50;7.10;99.90
4050;DHT22;2039;50.894;6.888;2024-02-26T00:33:21;7.10;99.90
4050;DHT22;2039;50.894;6.888;2024-02-26T00:35:47;7.10;99.30
4050;DHT22;2039;50.894;6.888;2024-02-26T00:38:13;7.10;99.60
4050;DHT22;2039;50.894;6.888;2024-02-26T00:40:39;7.10;99.90
4050;DHT22;2039;50.894;6.888;2024-02-26T00:43:06;7.20;99.90
4050;DHT22;2039;50.894;6.888;2024-02-26T00:45:32;7.10;99.90
4050;DHT22;2039;50.894;6.888;2024-02-26T00:47:58;7.10;99.90
4050;DHT22;2039;50.894;6.888;2024-02-26T00:50:26;7.10;99.90
4050;DHT22;2039;50.894;6.888;2024-02-26T00:52:52;7.10;99.90
4050;DHT22;2039;50.894;6.888;2024-02-26T00:55:18;7.10;99.90
4050;DHT22;2039;50.894;6.888;2024-02-26T00:57:43;7.10;99.90
4050;DHT22;2039;50.894;6.888;2024-02-26T01:00:09;7.10;99.90
4050;DHT22;2039;50.894;6.888;2024-02-26T01:02:35;7.10;99.90
4050;DHT22;2039;50.894;6.888;2024-02-26T01:05:01;7.10;99.90
4050;DHT22;2039;50.894;6.888;2024-02-26T01:07:27;7.10;99.90
4050;DHT22;2039;50.894;6.888;2024-02-26T01:09:53;7.10;99.90
4050;DHT22;2039;50.894;6.888;2024-02-26T01:12:19;7.10;99.90
4050;DHT22;2039;50.894;6.888;2024-02-26T01:14:44;7.00;99.90
4050;DHT22;2039;50.894;6.888;2024-02-26T01:17:10;7.00;99.90
4050;DHT22;2039;50.894;6.888;2024-02-26T01:19:35;7.00;99.90
4050;DHT22;2039;50.894;6.888;2024-02-26T01:22:01;7.00;99.90
4050;DHT22;2039;50.894;6.888;2024-02-26T01:24:27;7.00;99.90
4050;DHT22;2039;50.894;6.888;2024-02-26T01:26:53;7.00;99.90
4050;DHT22;2039;50.894;6.888;2024-02-26T01:29:18;7.00;99.90
4050;DHT22;2039;50.894;6.888;2024-02-26T01:31:44;7.00;99.90
4050;DHT22;2039;50.894;6.888;2024-02-26T01:34:10;7.00;99.90
4050;DHT22;2039;50.894;6.888;2024-02-26T01:36:36;7.00;99.90
4050;DHT22;2039;50.894;6.888;2024-02-26T01:39:01;6.90;99.90
4050;DHT22;2039;50.894;6.888;2024-02-26T01:41:28;7.00;99.90
4050;DHT22;2039;50.894;6.888;2024-02-26T01:43:54;6.90;99.90
4050;DHT22;2039;50.894;6.888;2024-02-26T01:46:20;6.90;99.90
4050;DHT22;2039;50.894;6.888;2024-02-26T01:48:47;7.00;99.90
4050;DHT22;2039;50.894;6.888;2024-02-26T01:51:14;6.90;99.90
4050;DHT22;2039;50.894;6.888;2024-02-26T01:53:41;7.00;99.90
4050;DHT22;2039;50.894;6.888;2024-02-26T01:56:07;6.90;99.90
4050;DHT22;2039;50.894;6.888;2024-02-26T01:58:34;6.90;99.90
4050;DHT22;2039;50.894;6.888;2024-02-26T02:01:01;6.80;99.90
4050;DHT22;2039;50.894;6.888;2024-02-26T02:03:27;6.80;99.90
4050;DHT22;2039;50.894;6.888;2024-02-26T02:05:53;6.90;99.90
4050;DHT22;2039;50.894;6.888;2024-02-26T02:08:19;6.80;99.90
4050;DHT22;2039;50.894;6.888;2024-02-26T02:10:45;6.90;99.90
4050;DHT22;2039;50.894;6.888;2024-02-26T02:13:13;6.90;99.90
4050;DHT22;2039;50.894;6.888;2024-02-26T02:15:39;7.00;99.90
4050;DHT22;2039;50.894;6.888;2024-02-26T02:18:05;6.90;99.90
4050;DHT22;2039;50.894;6.888;2024-02-26T02:20:33;6.90;99.90
4050;DHT22;2039;50.894;6.888;2024-02-26T02:22:59;6.90;99.90
4050;DHT22;2039;50.894;6.888;2024-02-26T02:25:25;6.90;99.90
4050;DHT22;2039;50.894;6.888;2024-02-26T02:27:52;7.00;99.90
4050;DHT22;2039;50.894;6.888;2024-02-26T02:30:18;7.00;99.90
4050;DHT22;2039;50.894;6.888;2024-02-26T02:32:45;7.10;99.90
4050;DHT22;2039;50.894;6.888;2024-02-26T02:35:10;7.00;99.90
4050;DHT22;2039;50.894;6.888;2024-02-26T02:37:36;7.00;99.90
4050;DHT22;2039;50.894;6.888;2024-02-26T02:40:02;7.00;99.90
4050;DHT22;2039;50.894;6.888;2024-02-26T02:42:28;7.10;99.90
4050;DHT22;2039;50.894;6.888;2024-02-26T02:44:54;7.00;99.90
4050;DHT22;2039;50.894;6.888;2024-02-26T02:47:22;7.00;99.90
4050;DHT22;2039;50.894;6.888;2024-02-26T02:49:48;7.00;99.90
4050;DHT22;2039;50.894;6.888;2024-02-26T02:52:14;6.90;99.90
4050;DHT22;2039;50.894;6.888;2024-02-26T02:54:39;6.90;99.90
4050;DHT22;2039;50.894;6.888;2024-02-26T02:57:10;6.90;99.90
4050;DHT22;2039;50.894;6.888;2024-02-26T02:59:37;6.90;99.90
4050;DHT22;2039;50.894;6.888;2024-02-26T03:02:02;6.80;99.90
4050;DHT22;2039;50.894;6.888;2024-02-26T03:04:28;6.90;99.90
4050;DHT22;2039;50.894;6.888;2024-02-26T03:06:55;6.80;99.90
4050;DHT22;2039;50.894;6.888;2024-02-26T03:09:23;6.80;99.90
4050;DHT22;2039;50.894;6.888;2024-02-26T03:11:49;6.80;99.90
4050;DHT22;2039;50.894;6.888;2024-02-26T03:14:15;6.70;99.90
4050;DHT22;2039;50.894;6.888;2024-02-26T03:16:41;6.80;99.90
4050;DHT22;2039;50.894;6.888;2024-02-26T03:19:07;6.80;99.90
4050;DHT22;2039;50.894;6.888;2024-02-26T03:21:35;6.80;99.90
4050;DHT22;2039;50.894;6.888;2024-02-26T03:24:01;6.70;99.90
4050;DHT22;2039;50.894;6.888;2024-02-26T03:26:27;6.70;99.90
4050;DHT22;2039;50.894;6.888;2024-02-26T03:28:53;6.70;99.90
4050;DHT22;2039;50.894;6.888;2024-02-26T03:31:18;6.70;99.90
4050;DHT22;2039;50.894;6.888;2024-02-26T03:33:45;6.70;99.90
4050;DHT22;2039;50.894;6.888;2024-02-26T03:36:10;6.70;99.90
4050;DHT22;2039;50.894;6.888;2024-02-26T03:38:37;6.70;99.90
4050;DHT22;2039;50.894;6.888;2024-02-26T03:41:03;6.70;99.90
4050;DHT22;2039;50.894;6.888;2024-02-26T03:43:28;6.70;99.90
4050;DHT22;2039;50.894;6.888;2024-02-26T03:45:54;6.70;99.90
4050;DHT22;2039;50.894;6.888;2024-02-26T03:48:20;6.70;99.90
4050;DHT22;2039;50.894;6.888;2024-02-26T03:50:45;6.70;99.90
4050;DHT22;2039;50.894;6.888;2024-02-26T03:53:11;6.70;99.90
4050;DHT22;2039;50.894;6.888;2024-02-26T03:55:38;6.70;99.90
4050;DHT22;2039;50.894;6.888;2024-02-26T03:58:04;6.70;99.90
4050;DHT22;2039;50.894;6.888;2024-02-26T04:00:29;6.70;99.90
4050;DHT22;2039;50.894;6.888;2024-02-26T04:02:55;6.70;99.90
4050;DHT22;2039;50.894;6.888;2024-02-26T04:05:21;6.70;99.90
4050;DHT22;2039;50.894;6.888;2024-02-26T04:07:46;6.70;99.90
4050;DHT22;2039;50.894;6.888;2024-02-26T04:10:13;6.80;99.90
4050;DHT22;2039;50.894;6.888;2024-02-26T04:12:39;6.80;99.90
4050;DHT22;2039;50.894;6.888;2024-02-26T04:15:07;6.80;99.90
4050;DHT22;2039;50.894;6.888;2024-02-26T04:17:33;6.80;99.90
4050;DHT22;2039;50.894;6.888;2024-02-26T04:20:01;6.80;99.90
4050;DHT22;2039;50.894;6.888;2024-02-26T04:22:27;6.70;99.90
4050;DHT22;2039;50.894;6.888;2024-02-26T04:24:53;6.70;99.90
4050;DHT22;2039;50.894;6.888;2024-02-26T04:27:18;6.70;99.90
4050;DHT22;2039;50.894;6.888;2024-02-26T04:29:44;6.70;99.90
4050;DHT22;2039;50.894;6.888;2024-02-26T04:32:10;6.70;99.90
4050;DHT22;2039;50.894;6.888;2024-02-26T04:34:35;6.60;99.90
4050;DHT22;2039;50.894;6.888;2024-02-26T04:37:01;6.60;99.90
4050;DHT22;2039;50.894;6.888;2024-02-26T04:39:26;6.60;99.90
4050;DHT22;2039;50.894;6.888;2024-02-26T04:41:52;6.60;99.90
4050;DHT22;2039;50.894;6.888;2024-02-26T04:44:18;6.70;99.90
4050;DHT22;2039;50.894;6.888;2024-02-26T04:46:43;6.60;99.90
4050;DHT22;2039;50.894;6.888;2024-02-26T04:49:09;6.60;99.90
4050;DHT22;2039;50.894;6.888;2024-02-26T04:51:35;6.60;99.90
4050;DHT22;2039;50.894;6.888;2024-02-26T04:54:00;6.60;99.90
4050;DHT22;2039;50.894;6.888;2024-02-26T04:56:26;6.60;99.90
4050;DHT22;2039;50.894;6.888;2024-02-26T04:58:52;6.60;99.90
4050;DHT22;2039;50.894;6.888;2024-02-26T05:01:20;6.60;99.90
4050;DHT22;2039;50.894;6.888;2024-02-26T05:03:46;6.50;99.90
4050;DHT22;2039;50.894;6.888;2024-02-26T05:06:12;6.50;99.90
4050;DHT22;2039;50.894;6.888;2024-02-26T05:08:38;6.50;99.90
4050;DHT22;2039;50.894;6.888;2024-02-26T05:11:04;6.50;99.90
4050;DHT22;2039;50.894;6.888;2024-02-26T05:13:31;6.50;99.90
4050;DHT22;2039;50.894;6.888;2024-02-26T05:15:57;6.50;99.90
4050;DHT22;2039;50.894;6.888;2024-02-26T05:18:23;6.60;99.90
4050;DHT22;2039;50.894;6.888;2024-02-26T05:20:49;6.50;99.90
4050;DHT22;2039;50.894;6.888;2024-02-26T05:23:14;6.50;99.90
4050;DHT22;2039;50.894;6.888;2024-02-26T05:25:40;6.40;99.90
4050;DHT22;2039;50.894;6.888;2024-02-26T05:28:06;6.40;99.90
4050;DHT22;2039;50.894;6.888;2024-02-26T05:30:32;6.40;99.90
4050;DHT22;2039;50.894;6.888;2024-02-26T05:32:58;6.40;99.90
4050;DHT22;2039;50.894;6.888;2024-02-26T05:35:24;6.40;99.90
4050;DHT22;2039;50.894;6.888;2024-02-26T05:37:51;6.40;99.90
4050;DHT22;2039;50.894;6.888;2024-02-26T05:40:17;6.40;99.90
4050;DHT22;2039;50.894;6.888;2024-02-26T05:42:42;6.40;99.90
4050;DHT22;2039;50.894;6.888;2024-02-26T05:45:10;6.40;99.90
4050;DHT22;2039;50.894;6.888;2024-02-26T05:47:36;6.40;99.90
4050;DHT22;2039;50.894;6.888;2024-02-26T05:50:11;6.40;99.90
4050;DHT22;2039;50.894;6.888;2024-02-26T05:52:38;6.30;99.90
4050;DHT22;2039;50.894;6.888;2024-02-26T05:55:05;6.40;99.90
4050;DHT22;2039;50.894;6.888;2024-02-26T05:57:31;6.40;99.90
4050;DHT22;2039;50.894;6.888;2024-02-26T05:59:57;6.40;99.90
4050;DHT22;2039;50.894;6.888;2024-02-26T06:02:26;6.30;99.90
4050;DHT22;2039;50.894;6.888;2024-02-26T06:04:51;6.30;99.90
4050;DHT22;2039;50.894;6.888;2024-02-26T06:07:17;6.30;99.90
4050;DHT22;2039;50.894;6.888;2024-02-26T06:09:43;6.30;99.90
4050;DHT22;2039;50.894;6.888;2024-02-26T06:12:08;6.30;99.90
4050;DHT22;2039;50.894;6.888;2024-02-26T06:14:34;6.30;99.90
4050;DHT22;2039;50.894;6.888;2024-02-26T06:17:00;6.30;99.90
4050;DHT22;2039;50.894;6.888;2024-02-26T06:19:25;6.30;99.90
4050;DHT22;2039;50.894;6.888;2024-02-26T06:21:51;6.40;99.90
4050;DHT22;2039;50.894;6.888;2024-02-26T06:24:16;6.30;99.90
4050;DHT22;2039;50.894;6.888;2024-02-26T06:26:42;6.30;99.90
4050;DHT22;2039;50.894;6.888;2024-02-26T06:29:08;6.30;99.90
4050;DHT22;2039;50.894;6.888;2024-02-26T06:31:33;6.30;99.90
4050;DHT22;2039;50.894;6.888;2024-02-26T06:33:59;6.30;99.90
4050;DHT22;2039;50.894;6.888;2024-02-26T06:36:25;6.30;99.90
4050;DHT22;2039;50.894;6.888;2024-02-26T06:38:51;6.30;99.90
4050;DHT22;2039;50.894;6.888;2024-02-26T06:41:19;6.30;99.90
4050;DHT22;2039;50.894;6.888;2024-02-26T06:43:45;6.30;99.90
4050;DHT22;2039;50.894;6.888;2024-02-26T06:46:10;6.30;99.90
4050;DHT22;2039;50.894;6.888;2024-02-26T06:48:36;6.30;99.90
4050;DHT22;2039;50.894;6.888;2024-02-26T06:51:02;6.30;99.90
4050;DHT22;2039;50.894;6.888;2024-02-26T06:53:28;6.30;99.90
4050;DHT22;2039;50.894;6.888;2024-02-26T06:55:54;6.30;99.90
4050;DHT22;2039;50.894;6.888;2024-02-26T06:58:19;6.30;99.90
4050;DHT22;2039;50.894;6.888;2024-02-26T07:00:45;6.20;99.90
4050;DHT22;2039;50.894;6.888;2024-02-26T07:03:11;6.20;99.90
4050;DHT22;2039;50.894;6.888;2024-02-26T07:05:39;6.20;99.90
4050;DHT22;2039;50.894;6.888;2024-02-26T07:08:05;6.20;99.90
4050;DHT22;2039;50.894;6.888;2024-02-26T07:10:31;6.30;99.90
4050;DHT22;2039;50.894;6.888;2024-02-26T07:12:56;6.20;99.90
4050;DHT22;2039;50.894;6.888;2024-02-26T07:15:22;6.20;99.90
4050;DHT22;2039;50.894;6.888;2024-02-26T07:17:48;6.20;99.90
4050;DHT22;2039;50.894;6.888;2024-02-26T07:20:14;6.20;99.90
4050;DHT22;2039;50.894;6.888;2024-02-26T07:22:40;6.20;99.90
4050;DHT22;2039;50.894;6.888;2024-02-26T07:25:08;6.20;99.90
4050;DHT22;2039;50.894;6.888;2024-02-26T07:27:34;6.20;99.90
4050;DHT22;2039;50.894;6.888;2024-02-26T07:30:00;6.20;99.90
4050;DHT22;2039;50.894;6.888;2024-02-26T07:32:25;6.20;99.90
4050;DHT22;2039;50.894;6.888;2024-02-26T07:34:51;6.20;99.90
4050;DHT22;2039;50.894;6.888;2024-02-26T07:37:17;6.20;99.90
4050;DHT22;2039;50.894;6.888;2024-02-26T07:39:42;6.20;99.90
4050;DHT22;2039;50.894;6.888;2024-02-26T07:42:08;6.20;99.90
4050;DHT22;2039;50.894;6.888;2024-02-26T07:44:34;6.20;99.90
4050;DHT22;2039;50.894;6.888;2024-02-26T07:47:08;6.20;99.90
4050;DHT22;2039;50.894;6.888;2024-02-26T07:52:14;6.20;99.90
4050;DHT22;2039;50.894;6.888;2024-02-26T07:54:39;6.20;99.90
4050;DHT22;2039;50.894;6.888;2024-02-26T07:57:05;6.20;99.90
4050;DHT22;2039;50.894;6.888;2024-02-26T07:59:31;6.20;99.90
4050;DHT22;2039;50.894;6.888;2024-02-26T08:01:57;6.20;99.90
4050;DHT22;2039;50.894;6.888;2024-02-26T08:04:23;6.20;99.90
4050;DHT22;2039;50.894;6.888;2024-02-26T08:06:48;6.30;99.90
4050;DHT22;2039;50.894;6.888;2024-02-26T08:09:14;6.30;99.90
4050;DHT22;2039;50.894;6.888;2024-02-26T08:11:40;6.30;99.90
4050;DHT22;2039;50.894;6.888;2024-02-26T08:14:05;6.30;99.90
4050;DHT22;2039;50.894;6.888;2024-02-26T08:16:31;6.30;99.90
4050;DHT22;2039;50.894;6.888;2024-02-26T08:18:57;6.30;99.90
4050;DHT22;2039;50.894;6.888;2024-02-26T08:21:23;6.30;99.90
4050;DHT22;2039;50.894;6.888;2024-02-26T08:23:49;6.30;99.90
4050;DHT22;2039;50.894;6.888;2024-02-26T08:26:14;6.30;99.90
4050;DHT22;2039;50.894;6.888;2024-02-26T08:28:40;6.30;99.90
4050;DHT22;2039;50.894;6.888;2024-02-26T08:31:06;6.30;99.90
4050;DHT22;2039;50.894;6.888;2024-02-26T08:33:32;6.40;99.90
4050;DHT22;2039;50.894;6.888;2024-02-26T08:36:02;6.40;99.90
4050;DHT22;2039;50.894;6.888;2024-02-26T08:38:29;6.30;99.90
4050;DHT22;2039;50.894;6.888;2024-02-26T08:40:55;6.30;99.90
4050;DHT22;2039;50.894;6.888;2024-02-26T08:43:20;6.30;99.90
4050;DHT22;2039;50.894;6.888;2024-02-26T08:45:46;6.30;99.90
4050;DHT22;2039;50.894;6.888;2024-02-26T08:48:12;6.40;99.90
4050;DHT22;2039;50.894;6.888;2024-02-26T08:50:37;6.30;99.90
4050;DHT22;2039;50.894;6.888;2024-02-26T08:53:03;6.40;99.90
4050;DHT22;2039;50.894;6.888;2024-02-26T08:55:29;6.30;99.90
4050;DHT22;2039;50.894;6.888;2024-02-26T08:57:58;6.30;99.90
4050;DHT22;2039;50.894;6.888;2024-02-26T09:00:23;6.30;99.90
4050;DHT22;2039;50.894;6.888;2024-02-26T09:02:49;6.30;99.90
4050;DHT22;2039;50.894;6.888;2024-02-26T09:05:15;6.40;99.90
4050;DHT22;2039;50.894;6.888;2024-02-26T09:07:41;6.40;99.90
4050;DHT22;2039;50.894;6.888;2024-02-26T09:10:07;6.40;99.90
4050;DHT22;2039;50.894;6.888;2024-02-26T09:12:37;6.40;99.90
4050;DHT22;2039;50.894;6.888;2024-02-26T09:15:03;6.40;99.90
4050;DHT22;2039;50.894;6.888;2024-02-26T09:17:29;6.40;99.90
4050;DHT22;2039;50.894;6.888;2024-02-26T09:19:54;6.30;99.90
4050;DHT22;2039;50.894;6.888;2024-02-26T09:22:20;6.40;99.90
4050;DHT22;2039;50.894;6.888;2024-02-26T09:24:46;6.30;99.90
4050;DHT22;2039;50.894;6.888;2024-02-26T09:27:12;6.30;99.90
4050;DHT22;2039;50.894;6.888;2024-02-26T09:29:38;6.30;99.90
4050;DHT22;2039;50.894;6.888;2024-02-26T09:32:03;6.30;99.90
4050;DHT22;2039;50.894;6.888;2024-02-26T09:34:29;6.30;99.90
4050;DHT22;2039;50.894;6.888;2024-02-26T09:36:55;6.30;99.90
4050;DHT22;2039;50.894;6.888;2024-02-26T09:39:20;6.30;99.90
4050;DHT22;2039;50.894;6.888;2024-02-26T09:41:47;6.30;99.90
4050;DHT22;2039;50.894;6.888;2024-02-26T09:44:18;6.30;99.90
4050;DHT22;2039;50.894;6.888;2024-02-26T09:46:49;6.30;99.90
4050;DHT22;2039;50.894;6.888;2024-02-26T09:49:20;6.40;99.90
4050;DHT22;2039;50.894;6.888;2024-02-26T09:51:49;6.40;99.90
4050;DHT22;2039;50.894;6.888;2024-02-26T09:54:15;6.30;99.90
4050;DHT22;2039;50.894;6.888;2024-02-26T09:56:42;6.40;99.90
4050;DHT22;2039;50.894;6.888;2024-02-26T09:59:15;6.40;99.90
4050;DHT22;2039;50.894;6.888;2024-02-26T10:01:47;6.40;99.90
4050;DHT22;2039;50.894;6.888;2024-02-26T10:04:14;6.40;99.90
4050;DHT22;2039;50.894;6.888;2024-02-26T10:06:40;6.40;99.90
4050;DHT22;2039;50.894;6.888;2024-02-26T10:09:09;6.30;99.90
4050;DHT22;2039;50.894;6.888;2024-02-26T10:11:38;6.40;99.90
4050;DHT22;2039;50.894;6.888;2024-02-26T10:14:04;6.40;99.90
4050;DHT22;2039;50.894;6.888;2024-02-26T10:16:30;6.40;99.90
4050;DHT22;2039;50.894;6.888;2024-02-26T10:18:55;6.50;99.90
4050;DHT22;2039;50.894;6.888;2024-02-26T10:21:22;6.50;99.90
4050;DHT22;2039;50.894;6.888;2024-02-26T10:23:48;6.50;99.90
4050;DHT22;2039;50.894;6.888;2024-02-26T10:26:15;6.70;99.90
4050;DHT22;2039;50.894;6.888;2024-02-26T10:28:44;6.70;99.90
4050;DHT22;2039;50.894;6.888;2024-02-26T10:31:11;6.80;99.90
4050;DHT22;2039;50.894;6.888;2024-02-26T10:33:38;6.90;99.90
4050;DHT22;2039;50.894;6.888;2024-02-26T10:36:05;7.00;99.90
4050;DHT22;2039;50.894;6.888;2024-02-26T10:38:32;7.00;99.90
4050;DHT22;2039;50.894;6.888;2024-02-26T10:40:58;7.00;99.90
4050;DHT22;2039;50.894;6.888;2024-02-26T10:43:25;7.10;99.90
4050;DHT22;2039;50.894;6.888;2024-02-26T10:45:51;7.10;99.90
4050;DHT22;2039;50.894;6.888;2024-02-26T10:48:17;7.10;99.90
4050;DHT22;2039;50.894;6.888;2024-02-26T10:50:43;7.20;99.90
4050;DHT22;2039;50.894;6.888;2024-02-26T10:53:29;7.30;99.90
4050;DHT22;2039;50.894;6.888;2024-02-26T10:56:04;7.20;99.90
4050;DHT22;2039;50.894;6.888;2024-02-26T10:58:33;7.20;99.90
4050;DHT22;2039;50.894;6.888;2024-02-26T11:01:00;7.20;99.90
4050;DHT22;2039;50.894;6.888;2024-02-26T11:03:26;7.30;99.90
4050;DHT22;2039;50.894;6.888;2024-02-26T11:05:54;7.40;99.90
4050;DHT22;2039;50.894;6.888;2024-02-26T11:08:22;7.30;99.90
4050;DHT22;2039;50.894;6.888;2024-02-26T11:10:52;7.30;99.90
4050;DHT22;2039;50.894;6.888;2024-02-26T11:13:19;7.50;99.90
4050;DHT22;2039;50.894;6.888;2024-02-26T11:15:47;7.50;99.90
4050;DHT22;2039;50.894;6.888;2024-02-26T11:18:15;7.40;99.90
4050;DHT22;2039;50.894;6.888;2024-02-26T11:20:42;7.40;99.90
4050;DHT22;2039;50.894;6.888;2024-02-26T11:23:08;7.40;99.90
4050;DHT22;2039;50.894;6.888;2024-02-26T11:25:37;7.40;99.90
4050;DHT22;2039;50.894;6.888;2024-02-26T11:28:10;7.40;99.90
4050;DHT22;2039;50.894;6.888;2024-02-26T11:30:42;7.30;99.90
4050;DHT22;2039;50.894;6.888;2024-02-26T11:33:09;7.30;99.90
4050;DHT22;2039;50.894;6.888;2024-02-26T11:35:38;7.50;99.90
4050;DHT22;2039;50.894;6.888;2024-02-26T11:38:04;7.50;99.90
4050;DHT22;2039;50.894;6.888;2024-02-26T11:40:33;7.50;99.90
4050;DHT22;2039;50.894;6.888;2024-02-26T11:42:58;7.40;99.90
4050;DHT22;2039;50.894;6.888;2024-02-26T11:48:15;7.40;99.90
4050;DHT22;2039;50.894;6.888;2024-02-26T11:50:46;7.60;99.90
4050;DHT22;2039;50.894;6.888;2024-02-26T11:53:30;7.70;99.90
4050;DHT22;2039;50.894;6.888;2024-02-26T11:59:05;7.60;99.90
4050;DHT22;2039;50.894;6.888;2024-02-26T12:01:45;7.60;99.90
4050;DHT22;2039;50.894;6.888;2024-02-26T12:04:17;7.50;99.90
4050;DHT22;2039;50.894;6.888;2024-02-26T12:06:55;7.40;99.90
4050;DHT22;2039;50.894;6.888;2024-02-26T12:09:31;7.40;99.90
4050;DHT22;2039;50.894;6.888;2024-02-26T12:11:57;7.60;99.90
4050;DHT22;2039;50.894;6.888;2024-02-26T12:14:26;7.60;99.90
4050;DHT22;2039;50.894;6.888;2024-02-26T12:16:53;7.80;99.90
4050;DHT22;2039;50.894;6.888;2024-02-26T12:19:18;7.90;99.90
4050;DHT22;2039;50.894;6.888;2024-02-26T12:21:44;7.80;99.90
4050;DHT22;2039;50.894;6.888;2024-02-26T12:24:11;7.70;99.90
4050;DHT22;2039;50.894;6.888;2024-02-26T12:26:38;7.70;99.90
4050;DHT22;2039;50.894;6.888;2024-02-26T12:29:03;7.70;99.90
4050;DHT22;2039;50.894;6.888;2024-02-26T12:31:32;7.80;99.90
4050;DHT22;2039;50.894;6.888;2024-02-26T12:34:01;7.80;99.90
4050;DHT22;2039;50.894;6.888;2024-02-26T12:36:27;7.70;99.90
4050;DHT22;2039;50.894;6.888;2024-02-26T12:38:53;7.70;99.90
4050;DHT22;2039;50.894;6.888;2024-02-26T12:41:21;7.70;99.90
4050;DHT22;2039;50.894;6.888;2024-02-26T12:43:47;7.70;99.90
4050;DHT22;2039;50.894;6.888;2024-02-26T12:46:13;7.70;99.90
4050;DHT22;2039;50.894;6.888;2024-02-26T12:48:43;7.70;99.90
4050;DHT22;2039;50.894;6.888;2024-02-26T12:51:09;7.70;99.90
4050;DHT22;2039;50.894;6.888;2024-02-26T12:53:35;7.70;99.90
4050;DHT22;2039;50.894;6.888;2024-02-26T12:56:02;7.70;99.90
4050;DHT22;2039;50.894;6.888;2024-02-26T12:58:29;7.80;99.90
4050;DHT22;2039;50.894;6.888;2024-02-26T13:00:56;7.80;99.90
4050;DHT22;2039;50.894;6.888;2024-02-26T13:03:23;7.90;99.90
4050;DHT22;2039;50.894;6.888;2024-02-26T13:05:49;7.90;99.90
4050;DHT22;2039;50.894;6.888;2024-02-26T13:08:22;7.80;99.90
4050;DHT22;2039;50.894;6.888;2024-02-26T13:10:48;7.80;99.90
4050;DHT22;2039;50.894;6.888;2024-02-26T13:13:18;7.70;99.90
4050;DHT22;2039;50.894;6.888;2024-02-26T13:15:45;7.80;99.90
4050;DHT22;2039;50.894;6.888;2024-02-26T13:18:13;7.90;99.90
4050;DHT22;2039;50.894;6.888;2024-02-26T13:20:40;8.00;99.90
4050;DHT22;2039;50.894;6.888;2024-02-26T13:23:07;8.10;99.90
4050;DHT22;2039;50.894;6.888;2024-02-26T13:25:34;8.10;99.90
4050;DHT22;2039;50.894;6.888;2024-02-26T13:28:14;8.10;99.90
4050;DHT22;2039;50.894;6.888;2024-02-26T13:30:41;8.20;99.90
4050;DHT22;2039;50.894;6.888;2024-02-26T13:33:09;8.20;99.90
4050;DHT22;2039;50.894;6.888;2024-02-26T13:35:35;8.20;99.90
4050;DHT22;2039;50.894;6.888;2024-02-26T13:38:02;8.20;99.90
4050;DHT22;2039;50.894;6.888;2024-02-26T13:40:28;8.20;99.90
4050;DHT22;2039;50.894;6.888;2024-02-26T13:42:54;8.20;99.90
4050;DHT22;2039;50.894;6.888;2024-02-26T13:45:20;8.20;99.90
4050;DHT22;2039;50.894;6.888;2024-02-26T13:47:45;8.30;99.90
4050;DHT22;2039;50.894;6.888;2024-02-26T13:50:11;8.10;99.90
4050;DHT22;2039;50.894;6.888;2024-02-26T13:52:37;8.10;99.90
4050;DHT22;2039;50.894;6.888;2024-02-26T13:55:03;8.00;99.90
4050;DHT22;2039;50.894;6.888;2024-02-26T13:57:29;7.90;99.90
4050;DHT22;2039;50.894;6.888;2024-02-26T13:59:55;7.80;99.90
4050;DHT22;2039;50.894;6.888;2024-02-26T14:02:21;7.90;99.90
4050;DHT22;2039;50.894;6.888;2024-02-26T14:04:47;7.90;99.90
4050;DHT22;2039;50.894;6.888;2024-02-26T14:07:13;7.90;99.90
4050;DHT22;2039;50.894;6.888;2024-02-26T14:09:39;8.00;99.90
4050;DHT22;2039;50.894;6.888;2024-02-26T14:12:05;7.90;99.90
4050;DHT22;2039;50.894;6.888;2024-02-26T14:14:30;7.80;99.90
4050;DHT22;2039;50.894;6.888;2024-02-26T14:17:03;7.80;99.90
4050;DHT22;2039;50.894;6.888;2024-02-26T14:19:29;7.90;99.90
4050;DHT22;2039;50.894;6.888;2024-02-26T14:21:55;7.80;99.90
4050;DHT22;2039;50.894;6.888;2024-02-26T14:24:20;7.90;99.90
4050;DHT22;2039;50.894;6.888;2024-02-26T14:26:46;8.00;99.90
4050;DHT22;2039;50.894;6.888;2024-02-26T14:29:12;8.00;99.90
4050;DHT22;2039;50.894;6.888;2024-02-26T14:31:37;7.90;99.90
4050;DHT22;2039;50.894;6.888;2024-02-26T14:34:03;8.00;99.90
4050;DHT22;2039;50.894;6.888;2024-02-26T14:36:29;8.00;99.90
4050;DHT22;2039;50.894;6.888;2024-02-26T14:38:54;8.00;99.90
4050;DHT22;2039;50.894;6.888;2024-02-26T14:41:20;8.10;99.90
4050;DHT22;2039;50.894;6.888;2024-02-26T14:43:46;8.10;99.90
4050;DHT22;2039;50.894;6.888;2024-02-26T14:46:11;8.00;99.90
4050;DHT22;2039;50.894;6.888;2024-02-26T14:48:37;8.10;99.90
4050;DHT22;2039;50.894;6.888;2024-02-26T14:51:03;8.00;99.90
4050;DHT22;2039;50.894;6.888;2024-02-26T14:53:31;8.10;99.90
4050;DHT22;2039;50.894;6.888;2024-02-26T14:55:57;8.10;99.90
4050;DHT22;2039;50.894;6.888;2024-02-26T14:58:26;8.10;99.90
4050;DHT22;2039;50.894;6.888;2024-02-26T15:00:52;8.10;99.90
4050;DHT22;2039;50.894;6.888;2024-02-26T15:03:17;8.10;99.90
4050;DHT22;2039;50.894;6.888;2024-02-26T15:05:43;8.10;99.90
4050;DHT22;2039;50.894;6.888;2024-02-26T15:08:09;8.00;99.90
4050;DHT22;2039;50.894;6.888;2024-02-26T15:10:35;8.10;99.90
4050;DHT22;2039;50.894;6.888;2024-02-26T15:13:01;8.10;99.90
4050;DHT22;2039;50.894;6.888;2024-02-26T15:15:27;8.10;99.90
4050;DHT22;2039;50.894;6.888;2024-02-26T15:17:53;8.10;99.90
4050;DHT22;2039;50.894;6.888;2024-02-26T15:20:19;8.10;99.90
4050;DHT22;2039;50.894;6.888;2024-02-26T15:22:44;8.20;99.90
4050;DHT22;2039;50.894;6.888;2024-02-26T15:25:12;8.20;99.90
4050;DHT22;2039;50.894;6.888;2024-02-26T15:27:37;8.20;99.90
4050;DHT22;2039;50.894;6.888;2024-02-26T15:30:03;8.20;99.90
4050;DHT22;2039;50.894;6.888;2024-02-26T15:32:29;8.30;99.90
4050;DHT22;2039;50.894;6.888;2024-02-26T15:34:55;8.30;99.90
4050;DHT22;2039;50.894;6.888;2024-02-26T15:37:21;8.30;99.90
4050;DHT22;2039;50.894;6.888;2024-02-26T15:39:47;8.30;99.90
4050;DHT22;2039;50.894;6.888;2024-02-26T15:42:13;8.30;99.90
4050;DHT22;2039;50.894;6.888;2024-02-26T15:44:39;8.30;99.90
4050;DHT22;2039;50.894;6.888;2024-02-26T15:47:05;8.30;99.90
4050;DHT22;2039;50.894;6.888;2024-02-26T15:49:31;8.30;99.90
4050;DHT22;2039;50.894;6.888;2024-02-26T15:52:00;8.40;99.90
4050;DHT22;2039;50.894;6.888;2024-02-26T15:54:26;8.40;99.90
4050;DHT22;2039;50.894;6.888;2024-02-26T15:56:52;8.40;99.90
4050;DHT22;2039;50.894;6.888;2024-02-26T15:59:19;8.30;99.90
4050;DHT22;2039;50.894;6.888;2024-02-26T16:01:44;8.40;99.90
4050;DHT22;2039;50.894;6.888;2024-02-26T16:04:31;8.40;99.90
4050;DHT22;2039;50.894;6.888;2024-02-26T16:07:04;8.40;99.90
4050;DHT22;2039;50.894;6.888;2024-02-26T16:10:00;8.40;99.90
4050;DHT22;2039;50.894;6.888;2024-02-26T16:12:48;8.30;99.90
4050;DHT22;2039;50.894;6.888;2024-02-26T16:15:21;8.30;99.90
4050;DHT22;2039;50.894;6.888;2024-02-26T16:17:51;8.30;99.90
4050;DHT22;2039;50.894;6.888;2024-02-26T16:20:21;8.30;99.90
4050;DHT22;2039;50.894;6.888;2024-02-26T16:22:50;8.30;99.90